createdAt,value
2022-12-03T00:07:58.659Z,27.33
2022-12-03T00:17:59.939Z,28.45
2022-12-03T00:28:01.200Z,24.75
2022-12-03T00:38:02.422Z,26.50
2022-12-03T00:48:03.652Z,27.10
2022-12-03T00:58:04.950Z,26.10
2022-12-03T01:08:06.258Z,27.02
2022-12-03T01:18:07.518Z,26.90
2022-12-03T01:28:08.776Z,25.25
2022-12-03T01:38:09.984Z,24.35
2022-12-03T01:48:11.207Z,24.10
2022-12-03T01:58:12.429Z,25.67
2022-12-03T02:08:13.728Z,27.20
2022-12-03T02:18:14.968Z,28.02
2022-12-03T02:28:16.194Z,24.25
2022-12-03T02:38:17.420Z,25.70
2022-12-03T02:48:18.664Z,28.40
2022-12-03T02:58:19.874Z,31.20
2022-12-03T03:08:21.271Z,32.30
2022-12-03T03:18:22.514Z,29.05
2022-12-03T03:28:23.717Z,28.77
2022-12-03T03:38:25.014Z,32.28
2022-12-03T03:48:26.254Z,39.63
2022-12-03T03:58:27.459Z,36.00
2022-12-03T04:08:28.796Z,36.05
2022-12-03T04:18:45.421Z,37.00
2022-12-03T04:28:49.661Z,37.17
2022-12-03T04:38:50.882Z,37.03
2022-12-03T04:48:52.106Z,33.17
2022-12-03T04:58:53.360Z,36.13
2022-12-03T05:08:54.642Z,42.58
2022-12-03T05:18:55.850Z,41.58
2022-12-03T05:28:57.060Z,39.85
2022-12-03T05:38:58.267Z,39.67
2022-12-03T05:59:43.591Z,38.08
2022-12-03T06:09:44.881Z,39.15
2022-12-03T06:19:46.120Z,40.90
2022-12-03T06:29:47.373Z,36.42
2022-12-03T06:39:48.624Z,40.83
2022-12-03T06:49:49.885Z,36.17
2022-12-03T06:59:51.183Z,43.67
2022-12-03T07:09:52.631Z,40.42
2022-12-03T07:19:53.904Z,45.13
2022-12-03T07:29:55.154Z,47.40
2022-12-03T07:39:56.375Z,48.05
2022-12-03T07:49:57.718Z,46.28
2022-12-03T07:59:58.995Z,49.13
2022-12-03T08:10:00.292Z,49.65
2022-12-03T08:20:01.566Z,46.80
2022-12-03T08:30:02.824Z,49.03
2022-12-03T08:40:04.095Z,53.50
2022-12-03T08:50:05.334Z,49.65
2022-12-03T09:00:06.593Z,52.35
2022-12-03T09:10:07.963Z,45.53
2022-12-03T09:20:09.203Z,48.25
2022-12-03T09:30:10.475Z,54.65
2022-12-03T09:40:11.761Z,55.90
2022-12-03T09:50:12.986Z,58.13
2022-12-03T10:00:14.224Z,57.33
2022-12-03T10:10:15.474Z,54.00
2022-12-03T10:20:16.728Z,59.40
2022-12-03T10:30:18.127Z,49.72
2022-12-03T10:40:19.450Z,52.90
2022-12-03T10:50:20.721Z,56.60
2022-12-03T11:00:22.696Z,48.70
2022-12-03T11:10:24.103Z,53.25
2022-12-03T11:20:25.377Z,49.05
2022-12-03T11:30:26.612Z,51.33
2022-12-03T11:40:43.038Z,52.03
2022-12-03T11:50:44.330Z,56.55
2022-12-03T12:00:45.564Z,55.33
2022-12-03T12:10:46.957Z,48.45
2022-12-03T12:20:48.192Z,52.63
2022-12-03T12:30:49.448Z,56.45
2022-12-03T12:40:50.654Z,58.63
2022-12-03T12:50:51.917Z,54.35
2022-12-03T13:00:53.218Z,57.45
2022-12-03T13:10:54.557Z,56.20
2022-12-03T13:20:55.853Z,54.58
2022-12-03T13:30:57.118Z,59.95
2022-12-03T13:40:59.017Z,65.78
2022-12-03T13:51:00.344Z,53.55
2022-12-03T14:01:01.688Z,44.40
2022-12-03T14:11:02.952Z,47.95
2022-12-03T14:21:04.203Z,42.10
2022-12-03T14:31:05.476Z,46.45
2022-12-03T14:41:26.730Z,36.38
2022-12-03T14:51:28.052Z,38.58
2022-12-03T15:01:29.441Z,43.88
2022-12-03T15:11:30.779Z,37.45
2022-12-03T15:21:34.864Z,33.03
2022-12-03T15:31:36.288Z,38.60
2022-12-03T15:41:37.630Z,34.53
2022-12-03T15:51:38.922Z,35.38
2022-12-03T16:01:40.469Z,34.17
2022-12-03T16:11:41.776Z,31.77
2022-12-03T16:21:43.120Z,35.03
2022-12-03T16:31:45.828Z,33.03
2022-12-03T16:41:47.074Z,42.03
2022-12-03T16:51:48.339Z,38.58
2022-12-03T17:01:49.811Z,36.35
2022-12-03T17:11:51.154Z,36.03
2022-12-03T17:21:53.968Z,39.45
2022-12-03T17:31:55.276Z,40.50
2022-12-03T17:41:56.577Z,45.15
2022-12-03T17:51:57.832Z,45.40
2022-12-03T18:01:59.139Z,43.95
2022-12-03T18:12:00.470Z,45.03
2022-12-03T18:22:01.715Z,45.88
2022-12-03T18:32:03.029Z,41.40
2022-12-03T18:42:04.309Z,43.45
2022-12-03T18:52:05.566Z,40.22
2022-12-03T19:02:06.916Z,40.35
2022-12-03T19:12:14.276Z,38.97
2022-12-03T19:22:15.988Z,41.63
2022-12-03T19:32:17.317Z,40.72
2022-12-03T19:42:18.576Z,39.25
2022-12-03T19:52:19.811Z,38.90
2022-12-03T20:02:21.199Z,42.75
2022-12-03T20:12:22.589Z,41.65
2022-12-03T20:22:23.830Z,41.83
2022-12-03T20:32:25.103Z,39.80
2022-12-03T20:42:26.400Z,42.28
2022-12-03T20:52:30.308Z,39.30
2022-12-03T21:02:31.666Z,35.53
2022-12-03T21:12:33.006Z,38.03
2022-12-03T21:22:34.376Z,47.78
2022-12-03T21:32:35.624Z,42.22
2022-12-03T21:42:37.437Z,43.72
2022-12-03T21:52:38.822Z,42.70
2022-12-03T22:02:40.326Z,38.92
2022-12-03T22:12:42.008Z,44.60
2022-12-03T22:22:43.329Z,42.60
2022-12-03T22:32:44.647Z,46.80
2022-12-03T22:42:50.804Z,51.00
2022-12-03T22:52:52.458Z,42.42
2022-12-03T23:02:53.964Z,43.00
2022-12-03T23:12:55.275Z,40.40
2022-12-03T23:22:56.546Z,40.05
2022-12-03T23:32:58.008Z,43.95
2022-12-03T23:43:01.862Z,42.22
2022-12-03T23:53:03.269Z,46.40
